Howardwick, Texas
Current Conditions -  °F | °C
As of 9:55 AM on Sunday 23 Nov 2014 (Local Time) from KPPA Reporting Station
Clear Clear  
Wind Chill: 50°   Ceiling: Unl
Heat Index: 50°   Visibility: 10mi
Dew Point: 32°   Wind: 33mph
Humidity: 50%   Direction: 350°N
Pressure: 29.56"   Gusts: 45mph
Location:  35.0052°N, 100.866°W
Report Text: KPPA 231555Z AUTO 35029G39KT 10SM CLR 10/00 A2956 RMK AO2 T01010001 PNO
Loading
Personal Weather Stations






























Interactive Weather Map New forecast layout! Learn more

10-Day Weather Forecast

Advertisements
Track Severe Weather on mobile